sensor_id;sensor_type;location;lat;lon;timestamp;pressure;altitude;pressure_sealevel;temperature
29423;BMP180;16399;51.686;8.684;2023-04-24T00:01:52;98456.00;;;12.00
29423;BMP180;16399;51.686;8.684;2023-04-24T00:04:54;98456.00;;;12.00
29423;BMP180;16399;51.686;8.684;2023-04-24T00:07:57;98446.00;;;11.90
29423;BMP180;16399;51.686;8.684;2023-04-24T00:10:59;98447.00;;;11.90
29423;BMP180;16399;51.686;8.684;2023-04-24T00:14:01;98450.00;;;11.80
29423;BMP180;16399;51.686;8.684;2023-04-24T00:17:04;98452.00;;;11.70
29423;BMP180;16399;51.686;8.684;2023-04-24T00:20:06;98444.00;;;11.80
29423;BMP180;16399;51.686;8.684;2023-04-24T00:23:09;98448.00;;;11.70
29423;BMP180;16399;51.686;8.684;2023-04-24T00:26:11;98450.00;;;11.70
29423;BMP180;16399;51.686;8.684;2023-04-24T00:29:13;98453.00;;;11.60
29423;BMP180;16399;51.686;8.684;2023-04-24T00:32:16;98458.00;;;11.60
29423;BMP180;16399;51.686;8.684;2023-04-24T00:35:18;98460.00;;;11.50
29423;BMP180;16399;51.686;8.684;2023-04-24T00:38:21;98450.00;;;11.50
29423;BMP180;16399;51.686;8.684;2023-04-24T00:41:24;98449.00;;;11.40
29423;BMP180;16399;51.686;8.684;2023-04-24T00:44:26;98446.00;;;11.40
29423;BMP180;16399;51.686;8.684;2023-04-24T00:47:29;98446.00;;;11.30
29423;BMP180;16399;51.686;8.684;2023-04-24T00:50:32;98431.00;;;11.30
29423;BMP180;16399;51.686;8.684;2023-04-24T00:53:34;98434.00;;;11.20
29423;BMP180;16399;51.686;8.684;2023-04-24T00:56:36;98438.00;;;11.20
29423;BMP180;16399;51.686;8.684;2023-04-24T00:59:39;98432.00;;;11.20
29423;BMP180;16399;51.686;8.684;2023-04-24T01:02:44;98438.00;;;11.20
29423;BMP180;16399;51.686;8.684;2023-04-24T01:05:46;98438.00;;;11.20
29423;BMP180;16399;51.686;8.684;2023-04-24T01:08:50;98433.00;;;11.20
29423;BMP180;16399;51.686;8.684;2023-04-24T01:11:53;98440.00;;;11.20
29423;BMP180;16399;51.686;8.684;2023-04-24T01:14:56;98428.00;;;11.30
29423;BMP180;16399;51.686;8.684;2023-04-24T01:17:58;98435.00;;;11.40
29423;BMP180;16399;51.686;8.684;2023-04-24T01:21:02;98433.00;;;11.40
29423;BMP180;16399;51.686;8.684;2023-04-24T01:24:06;98428.00;;;11.50
29423;BMP180;16399;51.686;8.684;2023-04-24T01:27:10;98418.00;;;11.50
29423;BMP180;16399;51.686;8.684;2023-04-24T01:30:13;98415.00;;;11.50
29423;BMP180;16399;51.686;8.684;2023-04-24T01:33:15;98420.00;;;11.50
29423;BMP180;16399;51.686;8.684;2023-04-24T01:36:18;98421.00;;;11.50
29423;BMP180;16399;51.686;8.684;2023-04-24T01:39:20;98426.00;;;11.50
29423;BMP180;16399;51.686;8.684;2023-04-24T01:42:24;98432.00;;;11.50
29423;BMP180;16399;51.686;8.684;2023-04-24T01:45:26;98433.00;;;11.50
29423;BMP180;16399;51.686;8.684;2023-04-24T01:48:29;98438.00;;;11.40
29423;BMP180;16399;51.686;8.684;2023-04-24T01:51:32;98432.00;;;11.30
29423;BMP180;16399;51.686;8.684;2023-04-24T01:54:34;98420.00;;;11.20
29423;BMP180;16399;51.686;8.684;2023-04-24T01:57:36;98429.00;;;11.20
29423;BMP180;16399;51.686;8.684;2023-04-24T02:00:39;98417.00;;;11.20
29423;BMP180;16399;51.686;8.684;2023-04-24T02:03:41;98417.00;;;11.10
29423;BMP180;16399;51.686;8.684;2023-04-24T02:06:43;98408.00;;;11.10
29423;BMP180;16399;51.686;8.684;2023-04-24T02:09:46;98408.00;;;11.10
29423;BMP180;16399;51.686;8.684;2023-04-24T02:12:48;98401.00;;;11.10
29423;BMP180;16399;51.686;8.684;2023-04-24T02:15:51;98407.00;;;11.10
29423;BMP180;16399;51.686;8.684;2023-04-24T02:18:53;98406.00;;;11.10
29423;BMP180;16399;51.686;8.684;2023-04-24T02:21:56;98399.00;;;11.10
29423;BMP180;16399;51.686;8.684;2023-04-24T02:24:58;98403.00;;;11.00
29423;BMP180;16399;51.686;8.684;2023-04-24T02:28:01;98406.00;;;11.00
29423;BMP180;16399;51.686;8.684;2023-04-24T02:31:04;98407.00;;;10.90
29423;BMP180;16399;51.686;8.684;2023-04-24T02:34:07;98401.00;;;10.90
29423;BMP180;16399;51.686;8.684;2023-04-24T02:37:09;98396.00;;;10.80
29423;BMP180;16399;51.686;8.684;2023-04-24T02:40:12;98400.00;;;10.90
29423;BMP180;16399;51.686;8.684;2023-04-24T02:43:14;98405.00;;;10.90
29423;BMP180;16399;51.686;8.684;2023-04-24T02:46:16;98405.00;;;10.90
29423;BMP180;16399;51.686;8.684;2023-04-24T02:49:18;98409.00;;;11.00
29423;BMP180;16399;51.686;8.684;2023-04-24T02:52:21;98403.00;;;11.00
29423;BMP180;16399;51.686;8.684;2023-04-24T02:55:23;98397.00;;;11.00
29423;BMP180;16399;51.686;8.684;2023-04-24T02:58:26;98405.00;;;11.00
29423;BMP180;16399;51.686;8.684;2023-04-24T03:01:28;98394.00;;;11.00
29423;BMP180;16399;51.686;8.684;2023-04-24T03:04:31;98402.00;;;11.00
29423;BMP180;16399;51.686;8.684;2023-04-24T03:07:33;98397.00;;;11.00
29423;BMP180;16399;51.686;8.684;2023-04-24T03:10:36;98390.00;;;11.00
29423;BMP180;16399;51.686;8.684;2023-04-24T03:13:38;98386.00;;;11.00
29423;BMP180;16399;51.686;8.684;2023-04-24T03:16:40;98399.00;;;11.00
29423;BMP180;16399;51.686;8.684;2023-04-24T03:19:43;98398.00;;;11.00
29423;BMP180;16399;51.686;8.684;2023-04-24T03:22:45;98397.00;;;11.10
29423;BMP180;16399;51.686;8.684;2023-04-24T03:25:47;98404.00;;;11.10
29423;BMP180;16399;51.686;8.684;2023-04-24T03:28:50;98392.00;;;11.10
29423;BMP180;16399;51.686;8.684;2023-04-24T03:31:52;98393.00;;;11.20
29423;BMP180;16399;51.686;8.684;2023-04-24T03:34:54;98401.00;;;11.20
29423;BMP180;16399;51.686;8.684;2023-04-24T03:37:57;98400.00;;;11.20
29423;BMP180;16399;51.686;8.684;2023-04-24T03:40:59;98392.00;;;11.20
29423;BMP180;16399;51.686;8.684;2023-04-24T03:44:01;98389.00;;;11.20
29423;BMP180;16399;51.686;8.684;2023-04-24T03:47:03;98391.00;;;11.30
29423;BMP180;16399;51.686;8.684;2023-04-24T03:50:06;98388.00;;;11.30
29423;BMP180;16399;51.686;8.684;2023-04-24T03:53:09;98400.00;;;11.30
29423;BMP180;16399;51.686;8.684;2023-04-24T03:56:11;98386.00;;;11.30
29423;BMP180;16399;51.686;8.684;2023-04-24T03:59:13;98392.00;;;11.40
29423;BMP180;16399;51.686;8.684;2023-04-24T04:02:15;98399.00;;;11.40
29423;BMP180;16399;51.686;8.684;2023-04-24T04:05:18;98411.00;;;11.30
29423;BMP180;16399;51.686;8.684;2023-04-24T04:08:20;98406.00;;;11.20
29423;BMP180;16399;51.686;8.684;2023-04-24T04:11:23;98416.00;;;11.00
29423;BMP180;16399;51.686;8.684;2023-04-24T04:14:26;98427.00;;;10.80
29423;BMP180;16399;51.686;8.684;2023-04-24T04:17:28;98412.00;;;10.60
29423;BMP180;16399;51.686;8.684;2023-04-24T04:20:31;98416.00;;;10.40
29423;BMP180;16399;51.686;8.684;2023-04-24T04:23:33;98425.00;;;10.30
29423;BMP180;16399;51.686;8.684;2023-04-24T04:26:35;98433.00;;;10.20
29423;BMP180;16399;51.686;8.684;2023-04-24T04:29:38;98436.00;;;10.10
29423;BMP180;16399;51.686;8.684;2023-04-24T04:32:41;98432.00;;;10.00
29423;BMP180;16399;51.686;8.684;2023-04-24T04:35:43;98424.00;;;10.00
29423;BMP180;16399;51.686;8.684;2023-04-24T04:38:45;98418.00;;;10.00
29423;BMP180;16399;51.686;8.684;2023-04-24T04:41:48;98441.00;;;10.00
29423;BMP180;16399;51.686;8.684;2023-04-24T04:44:50;98433.00;;;10.00
29423;BMP180;16399;51.686;8.684;2023-04-24T04:47:52;98445.00;;;10.10
29423;BMP180;16399;51.686;8.684;2023-04-24T04:50:56;98443.00;;;10.10
29423;BMP180;16399;51.686;8.684;2023-04-24T04:53:58;98448.00;;;10.10
29423;BMP180;16399;51.686;8.684;2023-04-24T04:57:00;98448.00;;;10.10
29423;BMP180;16399;51.686;8.684;2023-04-24T05:00:03;98449.00;;;10.10
29423;BMP180;16399;51.686;8.684;2023-04-24T05:03:05;98453.00;;;10.10
29423;BMP180;16399;51.686;8.684;2023-04-24T05:06:08;98452.00;;;10.10
29423;BMP180;16399;51.686;8.684;2023-04-24T05:09:10;98465.00;;;10.10
29423;BMP180;16399;51.686;8.684;2023-04-24T05:12:12;98473.00;;;10.20
29423;BMP180;16399;51.686;8.684;2023-04-24T05:15:15;98471.00;;;10.10
29423;BMP180;16399;51.686;8.684;2023-04-24T05:18:17;98469.00;;;10.10
29423;BMP180;16399;51.686;8.684;2023-04-24T05:21:19;98475.00;;;10.20
29423;BMP180;16399;51.686;8.684;2023-04-24T05:24:22;98458.00;;;10.20
29423;BMP180;16399;51.686;8.684;2023-04-24T05:27:24;98464.00;;;10.10
29423;BMP180;16399;51.686;8.684;2023-04-24T05:30:27;98474.00;;;10.10
29423;BMP180;16399;51.686;8.684;2023-04-24T05:33:29;98477.00;;;10.10
29423;BMP180;16399;51.686;8.684;2023-04-24T05:36:31;98477.00;;;10.10
29423;BMP180;16399;51.686;8.684;2023-04-24T05:39:34;98488.00;;;10.20
29423;BMP180;16399;51.686;8.684;2023-04-24T05:42:36;98484.00;;;10.20
29423;BMP180;16399;51.686;8.684;2023-04-24T05:45:39;98476.00;;;10.20
29423;BMP180;16399;51.686;8.684;2023-04-24T05:48:41;98476.00;;;10.30
29423;BMP180;16399;51.686;8.684;2023-04-24T05:51:44;98475.00;;;10.30
29423;BMP180;16399;51.686;8.684;2023-04-24T05:54:46;98477.00;;;10.30
29423;BMP180;16399;51.686;8.684;2023-04-24T05:57:48;98473.00;;;10.50
29423;BMP180;16399;51.686;8.684;2023-04-24T06:00:51;98469.00;;;10.60
29423;BMP180;16399;51.686;8.684;2023-04-24T06:03:53;98451.00;;;10.70
29423;BMP180;16399;51.686;8.684;2023-04-24T06:06:55;98457.00;;;10.90
29423;BMP180;16399;51.686;8.684;2023-04-24T06:09:58;98460.00;;;11.10
29423;BMP180;16399;51.686;8.684;2023-04-24T06:13:00;98456.00;;;11.30
29423;BMP180;16399;51.686;8.684;2023-04-24T06:16:02;98452.00;;;11.40
29423;BMP180;16399;51.686;8.684;2023-04-24T06:19:04;98461.00;;;11.70
29423;BMP180;16399;51.686;8.684;2023-04-24T06:22:07;98477.00;;;11.80
29423;BMP180;16399;51.686;8.684;2023-04-24T06:25:09;98477.00;;;11.90
29423;BMP180;16399;51.686;8.684;2023-04-24T06:28:11;98474.00;;;12.00
29423;BMP180;16399;51.686;8.684;2023-04-24T06:31:14;98478.00;;;12.00
29423;BMP180;16399;51.686;8.684;2023-04-24T06:34:17;98485.00;;;12.00
29423;BMP180;16399;51.686;8.684;2023-04-24T06:37:19;98482.00;;;11.80
29423;BMP180;16399;51.686;8.684;2023-04-24T06:40:22;98487.00;;;11.60
29423;BMP180;16399;51.686;8.684;2023-04-24T06:43:25;98483.00;;;11.50
29423;BMP180;16399;51.686;8.684;2023-04-24T06:46:27;98481.00;;;11.30
29423;BMP180;16399;51.686;8.684;2023-04-24T06:49:30;98496.00;;;11.30
29423;BMP180;16399;51.686;8.684;2023-04-24T06:52:32;98493.00;;;11.30
29423;BMP180;16399;51.686;8.684;2023-04-24T06:55:35;98492.00;;;11.30
29423;BMP180;16399;51.686;8.684;2023-04-24T06:58:38;98508.00;;;11.30
29423;BMP180;16399;51.686;8.684;2023-04-24T07:01:40;98504.00;;;11.20
29423;BMP180;16399;51.686;8.684;2023-04-24T07:04:42;98494.00;;;11.20
29423;BMP180;16399;51.686;8.684;2023-04-24T07:07:45;98500.00;;;11.20
29423;BMP180;16399;51.686;8.684;2023-04-24T07:10:49;98510.00;;;11.20
29423;BMP180;16399;51.686;8.684;2023-04-24T07:13:53;98501.00;;;11.30
29423;BMP180;16399;51.686;8.684;2023-04-24T07:16:55;98491.00;;;11.40
29423;BMP180;16399;51.686;8.684;2023-04-24T07:19:58;98489.00;;;11.70
29423;BMP180;16399;51.686;8.684;2023-04-24T07:23:00;98499.00;;;11.90
29423;BMP180;16399;51.686;8.684;2023-04-24T07:26:03;98505.00;;;12.00
29423;BMP180;16399;51.686;8.684;2023-04-24T07:29:05;98495.00;;;12.00
29423;BMP180;16399;51.686;8.684;2023-04-24T07:32:08;98502.00;;;12.00
29423;BMP180;16399;51.686;8.684;2023-04-24T07:35:10;98508.00;;;11.90
29423;BMP180;16399;51.686;8.684;2023-04-24T07:38:12;98501.00;;;11.80
29423;BMP180;16399;51.686;8.684;2023-04-24T07:41:15;98517.00;;;11.80
29423;BMP180;16399;51.686;8.684;2023-04-24T07:44:17;98520.00;;;11.90
29423;BMP180;16399;51.686;8.684;2023-04-24T07:47:19;98510.00;;;12.00
29423;BMP180;16399;51.686;8.684;2023-04-24T07:50:22;98520.00;;;12.30
29423;BMP180;16399;51.686;8.684;2023-04-24T07:53:24;98523.00;;;12.50
29423;BMP180;16399;51.686;8.684;2023-04-24T07:56:26;98517.00;;;12.40
29423;BMP180;16399;51.686;8.684;2023-04-24T07:59:30;98525.00;;;12.40
29423;BMP180;16399;51.686;8.684;2023-04-24T08:02:33;98523.00;;;12.20
29423;BMP180;16399;51.686;8.684;2023-04-24T08:05:35;98522.00;;;12.10
29423;BMP180;16399;51.686;8.684;2023-04-24T08:08:37;98541.00;;;12.00
29423;BMP180;16399;51.686;8.684;2023-04-24T08:11:40;98531.00;;;11.90
29423;BMP180;16399;51.686;8.684;2023-04-24T08:14:42;98535.00;;;11.80
29423;BMP180;16399;51.686;8.684;2023-04-24T08:17:44;98534.00;;;11.70
29423;BMP180;16399;51.686;8.684;2023-04-24T08:20:47;98546.00;;;11.70
29423;BMP180;16399;51.686;8.684;2023-04-24T08:23:49;98547.00;;;11.60
29423;BMP180;16399;51.686;8.684;2023-04-24T08:26:52;98550.00;;;11.50
29423;BMP180;16399;51.686;8.684;2023-04-24T08:29:55;98560.00;;;11.40
29423;BMP180;16399;51.686;8.684;2023-04-24T08:32:57;98560.00;;;11.40
29423;BMP180;16399;51.686;8.684;2023-04-24T08:36:01;98553.00;;;11.30
29423;BMP180;16399;51.686;8.684;2023-04-24T08:39:04;98559.00;;;11.30
29423;BMP180;16399;51.686;8.684;2023-04-24T08:42:07;98573.00;;;11.30
29423;BMP180;16399;51.686;8.684;2023-04-24T08:45:11;98568.00;;;11.30
29423;BMP180;16399;51.686;8.684;2023-04-24T08:48:14;98556.00;;;11.30
29423;BMP180;16399;51.686;8.684;2023-04-24T08:51:17;98541.00;;;11.40
29423;BMP180;16399;51.686;8.684;2023-04-24T08:54:20;98546.00;;;11.60
29423;BMP180;16399;51.686;8.684;2023-04-24T08:57:22;98526.00;;;11.90
29423;BMP180;16399;51.686;8.684;2023-04-24T09:00:25;98537.00;;;12.00
29423;BMP180;16399;51.686;8.684;2023-04-24T09:03:28;98558.00;;;12.00
29423;BMP180;16399;51.686;8.684;2023-04-24T09:06:31;98545.00;;;12.00
29423;BMP180;16399;51.686;8.684;2023-04-24T09:09:35;98550.00;;;11.80
29423;BMP180;16399;51.686;8.684;2023-04-24T09:12:37;98549.00;;;11.60
29423;BMP180;16399;51.686;8.684;2023-04-24T09:15:41;98546.00;;;11.60
29423;BMP180;16399;51.686;8.684;2023-04-24T09:18:43;98545.00;;;11.60
29423;BMP180;16399;51.686;8.684;2023-04-24T09:21:46;98546.00;;;11.70
29423;BMP180;16399;51.686;8.684;2023-04-24T09:24:49;98529.00;;;11.80
29423;BMP180;16399;51.686;8.684;2023-04-24T09:27:54;98539.00;;;11.90
29423;BMP180;16399;51.686;8.684;2023-04-24T09:31:12;98537.00;;;12.10
29423;BMP180;16399;51.686;8.684;2023-04-24T09:34:19;98547.00;;;12.10
29423;BMP180;16399;51.686;8.684;2023-04-24T09:37:28;98558.00;;;12.00
29423;BMP180;16399;51.686;8.684;2023-04-24T09:40:34;98555.00;;;11.90
29423;BMP180;16399;51.686;8.684;2023-04-24T09:43:36;98563.00;;;11.80
29423;BMP180;16399;51.686;8.684;2023-04-24T09:46:39;98550.00;;;11.70
29423;BMP180;16399;51.686;8.684;2023-04-24T09:49:41;98554.00;;;11.80
29423;BMP180;16399;51.686;8.684;2023-04-24T09:52:46;98550.00;;;11.80
29423;BMP180;16399;51.686;8.684;2023-04-24T09:55:48;98560.00;;;11.70
29423;BMP180;16399;51.686;8.684;2023-04-24T09:58:51;98566.00;;;11.70
29423;BMP180;16399;51.686;8.684;2023-04-24T10:01:53;98565.00;;;11.60
29423;BMP180;16399;51.686;8.684;2023-04-24T10:04:57;98554.00;;;11.70
29423;BMP180;16399;51.686;8.684;2023-04-24T10:08:05;98563.00;;;11.70
29423;BMP180;16399;51.686;8.684;2023-04-24T10:11:08;98586.00;;;11.60
29423;BMP180;16399;51.686;8.684;2023-04-24T10:14:17;98587.00;;;11.20
29423;BMP180;16399;51.686;8.684;2023-04-24T10:17:20;98599.00;;;10.90
29423;BMP180;16399;51.686;8.684;2023-04-24T10:20:25;98595.00;;;10.90
29423;BMP180;16399;51.686;8.684;2023-04-24T10:23:28;98598.00;;;10.90
29423;BMP180;16399;51.686;8.684;2023-04-24T10:26:30;98589.00;;;11.30
29423;BMP180;16399;51.686;8.684;2023-04-24T10:29:34;98590.00;;;11.40
29423;BMP180;16399;51.686;8.684;2023-04-24T10:32:37;98623.00;;;11.60
29423;BMP180;16399;51.686;8.684;2023-04-24T10:35:42;98609.00;;;11.40
29423;BMP180;16399;51.686;8.684;2023-04-24T10:38:47;98611.00;;;11.20
29423;BMP180;16399;51.686;8.684;2023-04-24T10:41:50;98615.00;;;11.00
29423;BMP180;16399;51.686;8.684;2023-04-24T10:44:52;98609.00;;;10.80
29423;BMP180;16399;51.686;8.684;2023-04-24T10:48:03;98618.00;;;10.90
29423;BMP180;16399;51.686;8.684;2023-04-24T10:51:11;98634.00;;;11.00
29423;BMP180;16399;51.686;8.684;2023-04-24T10:58:03;98644.00;;;10.60
29423;BMP180;16399;51.686;8.684;2023-04-24T11:01:05;98655.00;;;10.40
29423;BMP180;16399;51.686;8.684;2023-04-24T11:04:08;98656.00;;;10.20
29423;BMP180;16399;51.686;8.684;2023-04-24T11:07:12;98657.00;;;10.20
29423;BMP180;16399;51.686;8.684;2023-04-24T11:10:25;98658.00;;;10.10
29423;BMP180;16399;51.686;8.684;2023-04-24T11:16:54;98674.00;;;9.90
29423;BMP180;16399;51.686;8.684;2023-04-24T11:20:01;98680.00;;;9.90
29423;BMP180;16399;51.686;8.684;2023-04-24T11:23:06;98699.00;;;9.70
29423;BMP180;16399;51.686;8.684;2023-04-24T11:26:22;98693.00;;;9.50
29423;BMP180;16399;51.686;8.684;2023-04-24T11:29:19;98702.00;;;9.40
29423;BMP180;16399;51.686;8.684;2023-04-24T11:35:41;98724.00;;;9.10
29423;BMP180;16399;51.686;8.684;2023-04-24T11:38:43;98734.00;;;9.00
29423;BMP180;16399;51.686;8.684;2023-04-24T11:41:46;98735.00;;;9.00
29423;BMP180;16399;51.686;8.684;2023-04-24T11:44:49;98732.00;;;9.00
29423;BMP180;16399;51.686;8.684;2023-04-24T11:47:52;98738.00;;;9.00
29423;BMP180;16399;51.686;8.684;2023-04-24T11:50:55;98740.00;;;9.00
29423;BMP180;16399;51.686;8.684;2023-04-24T11:53:58;98752.00;;;9.00
29423;BMP180;16399;51.686;8.684;2023-04-24T11:57:05;98759.00;;;9.10
29423;BMP180;16399;51.686;8.684;2023-04-24T12:00:08;98762.00;;;9.00
29423;BMP180;16399;51.686;8.684;2023-04-24T12:03:12;98786.00;;;9.10
29423;BMP180;16399;51.686;8.684;2023-04-24T12:06:14;98792.00;;;9.00
29423;BMP180;16399;51.686;8.684;2023-04-24T12:09:16;98798.00;;;9.00
29423;BMP180;16399;51.686;8.684;2023-04-24T12:12:19;98807.00;;;8.90
29423;BMP180;16399;51.686;8.684;2023-04-24T12:15:21;98816.00;;;8.90
29423;BMP180;16399;51.686;8.684;2023-04-24T12:18:24;98822.00;;;8.90
29423;BMP180;16399;51.686;8.684;2023-04-24T12:21:26;98836.00;;;8.80
29423;BMP180;16399;51.686;8.684;2023-04-24T12:24:31;98852.00;;;8.70
29423;BMP180;16399;51.686;8.684;2023-04-24T12:27:33;98854.00;;;8.60
29423;BMP180;16399;51.686;8.684;2023-04-24T12:30:41;98858.00;;;8.60
29423;BMP180;16399;51.686;8.684;2023-04-24T12:33:47;98854.00;;;8.60
29423;BMP180;16399;51.686;8.684;2023-04-24T12:36:49;98864.00;;;8.60
29423;BMP180;16399;51.686;8.684;2023-04-24T12:40:06;98871.00;;;8.50
29423;BMP180;16399;51.686;8.684;2023-04-24T12:43:19;98876.00;;;8.50
29423;BMP180;16399;51.686;8.684;2023-04-24T12:46:21;98878.00;;;8.40
29423;BMP180;16399;51.686;8.684;2023-04-24T12:49:23;98888.00;;;8.40
29423;BMP180;16399;51.686;8.684;2023-04-24T12:52:27;98884.00;;;8.40
29423;BMP180;16399;51.686;8.684;2023-04-24T12:55:29;98888.00;;;8.40
29423;BMP180;16399;51.686;8.684;2023-04-24T12:58:32;98895.00;;;8.40
29423;BMP180;16399;51.686;8.684;2023-04-24T13:01:34;98902.00;;;8.40
29423;BMP180;16399;51.686;8.684;2023-04-24T13:04:36;98909.00;;;8.50
29423;BMP180;16399;51.686;8.684;2023-04-24T13:07:39;98909.00;;;8.50
29423;BMP180;16399;51.686;8.684;2023-04-24T13:10:41;98921.00;;;8.50
29423;BMP180;16399;51.686;8.684;2023-04-24T13:13:44;98920.00;;;8.60
29423;BMP180;16399;51.686;8.684;2023-04-24T13:16:46;98922.00;;;8.60
29423;BMP180;16399;51.686;8.684;2023-04-24T13:19:50;98921.00;;;8.50
29423;BMP180;16399;51.686;8.684;2023-04-24T13:22:53;98926.00;;;8.50
29423;BMP180;16399;51.686;8.684;2023-04-24T13:25:55;98913.00;;;8.50
29423;BMP180;16399;51.686;8.684;2023-04-24T13:28:58;98917.00;;;8.50
29423;BMP180;16399;51.686;8.684;2023-04-24T13:32:02;98930.00;;;8.50
29423;BMP180;16399;51.686;8.684;2023-04-24T13:35:06;98925.00;;;8.50
29423;BMP180;16399;51.686;8.684;2023-04-24T13:38:08;98931.00;;;8.60
29423;BMP180;16399;51.686;8.684;2023-04-24T13:41:10;98925.00;;;8.60
29423;BMP180;16399;51.686;8.684;2023-04-24T13:44:13;98921.00;;;8.60
29423;BMP180;16399;51.686;8.684;2023-04-24T13:47:16;98930.00;;;8.60
29423;BMP180;16399;51.686;8.684;2023-04-24T13:50:18;98930.00;;;8.60
29423;BMP180;16399;51.686;8.684;2023-04-24T13:53:20;98931.00;;;8.60
29423;BMP180;16399;51.686;8.684;2023-04-24T13:56:24;98933.00;;;8.60
29423;BMP180;16399;51.686;8.684;2023-04-24T13:59:26;98940.00;;;8.60
29423;BMP180;16399;51.686;8.684;2023-04-24T14:02:29;98937.00;;;8.60
29423;BMP180;16399;51.686;8.684;2023-04-24T14:05:31;98934.00;;;8.50
29423;BMP180;16399;51.686;8.684;2023-04-24T14:08:34;98937.00;;;8.50
29423;BMP180;16399;51.686;8.684;2023-04-24T14:11:36;98943.00;;;8.50
29423;BMP180;16399;51.686;8.684;2023-04-24T14:14:38;98938.00;;;8.50
29423;BMP180;16399;51.686;8.684;2023-04-24T14:17:41;98928.00;;;8.50
29423;BMP180;16399;51.686;8.684;2023-04-24T14:20:43;98929.00;;;8.60
29423;BMP180;16399;51.686;8.684;2023-04-24T14:23:45;98929.00;;;8.60
29423;BMP180;16399;51.686;8.684;2023-04-24T14:26:48;98940.00;;;8.60
29423;BMP180;16399;51.686;8.684;2023-04-24T14:29:50;98938.00;;;8.60
29423;BMP180;16399;51.686;8.684;2023-04-24T14:32:52;98935.00;;;8.60
29423;BMP180;16399;51.686;8.684;2023-04-24T14:35:55;98941.00;;;8.60
29423;BMP180;16399;51.686;8.684;2023-04-24T14:38:57;98944.00;;;8.60
29423;BMP180;16399;51.686;8.684;2023-04-24T14:41:59;98945.00;;;8.60
29423;BMP180;16399;51.686;8.684;2023-04-24T14:45:02;98943.00;;;8.70
29423;BMP180;16399;51.686;8.684;2023-04-24T14:48:05;98936.00;;;8.90
29423;BMP180;16399;51.686;8.684;2023-04-24T14:51:09;98946.00;;;9.00
29423;BMP180;16399;51.686;8.684;2023-04-24T14:54:11;98954.00;;;9.00
29423;BMP180;16399;51.686;8.684;2023-04-24T14:57:13;98950.00;;;9.00
29423;BMP180;16399;51.686;8.684;2023-04-24T15:00:18;98946.00;;;9.00
29423;BMP180;16399;51.686;8.684;2023-04-24T15:03:21;98957.00;;;9.00
29423;BMP180;16399;51.686;8.684;2023-04-24T15:06:24;98961.00;;;9.00
29423;BMP180;16399;51.686;8.684;2023-04-24T15:09:26;98963.00;;;9.00
29423;BMP180;16399;51.686;8.684;2023-04-24T15:12:29;98964.00;;;9.00
29423;BMP180;16399;51.686;8.684;2023-04-24T15:15:31;98970.00;;;9.00
29423;BMP180;16399;51.686;8.684;2023-04-24T15:18:33;98973.00;;;8.90
29423;BMP180;16399;51.686;8.684;2023-04-24T15:21:36;98972.00;;;8.90
29423;BMP180;16399;51.686;8.684;2023-04-24T15:24:39;98984.00;;;8.90
29423;BMP180;16399;51.686;8.684;2023-04-24T15:27:45;98982.00;;;9.00
29423;BMP180;16399;51.686;8.684;2023-04-24T15:30:48;98977.00;;;9.00
29423;BMP180;16399;51.686;8.684;2023-04-24T15:33:50;98981.00;;;9.00
29423;BMP180;16399;51.686;8.684;2023-04-24T15:36:53;98991.00;;;9.10
29423;BMP180;16399;51.686;8.684;2023-04-24T15:39:56;98984.00;;;9.10
29423;BMP180;16399;51.686;8.684;2023-04-24T15:42:58;98986.00;;;9.10
29423;BMP180;16399;51.686;8.684;2023-04-24T15:46:01;99001.00;;;9.10
29423;BMP180;16399;51.686;8.684;2023-04-24T15:49:04;99001.00;;;9.10
29423;BMP180;16399;51.686;8.684;2023-04-24T15:52:06;98998.00;;;9.10
29423;BMP180;16399;51.686;8.684;2023-04-24T15:55:10;99004.00;;;9.10
29423;BMP180;16399;51.686;8.684;2023-04-24T15:58:12;98996.00;;;9.00
29423;BMP180;16399;51.686;8.684;2023-04-24T16:01:15;99001.00;;;9.00
29423;BMP180;16399;51.686;8.684;2023-04-24T16:04:17;99018.00;;;9.00
29423;BMP180;16399;51.686;8.684;2023-04-24T16:07:19;99032.00;;;8.90
29423;BMP180;16399;51.686;8.684;2023-04-24T16:10:22;99035.00;;;8.80
29423;BMP180;16399;51.686;8.684;2023-04-24T16:13:24;99034.00;;;8.70
29423;BMP180;16399;51.686;8.684;2023-04-24T16:16:27;99040.00;;;8.70
29423;BMP180;16399;51.686;8.684;2023-04-24T16:19:29;99032.00;;;8.70
29423;BMP180;16399;51.686;8.684;2023-04-24T16:22:32;99044.00;;;8.70
29423;BMP180;16399;51.686;8.684;2023-04-24T16:25:34;99042.00;;;8.60
29423;BMP180;16399;51.686;8.684;2023-04-24T16:28:37;99050.00;;;8.60
29423;BMP180;16399;51.686;8.684;2023-04-24T16:31:40;99038.00;;;8.60
29423;BMP180;16399;51.686;8.684;2023-04-24T16:34:42;99043.00;;;8.50
29423;BMP180;16399;51.686;8.684;2023-04-24T16:37:44;99053.00;;;8.50
29423;BMP180;16399;51.686;8.684;2023-04-24T16:40:47;99052.00;;;8.50
29423;BMP180;16399;51.686;8.684;2023-04-24T16:43:49;99055.00;;;8.50
29423;BMP180;16399;51.686;8.684;2023-04-24T16:46:52;99053.00;;;8.60
29423;BMP180;16399;51.686;8.684;2023-04-24T16:49:54;99059.00;;;8.70
29423;BMP180;16399;51.686;8.684;2023-04-24T16:52:56;99050.00;;;8.80
29423;BMP180;16399;51.686;8.684;2023-04-24T16:55:59;99063.00;;;8.90
29423;BMP180;16399;51.686;8.684;2023-04-24T16:59:01;99063.00;;;8.90
29423;BMP180;16399;51.686;8.684;2023-04-24T17:02:03;99056.00;;;8.80
29423;BMP180;16399;51.686;8.684;2023-04-24T17:05:06;99058.00;;;8.80
29423;BMP180;16399;51.686;8.684;2023-04-24T17:08:08;99057.00;;;8.80
29423;BMP180;16399;51.686;8.684;2023-04-24T17:11:11;99057.00;;;8.70
29423;BMP180;16399;51.686;8.684;2023-04-24T17:14:13;99057.00;;;8.70
29423;BMP180;16399;51.686;8.684;2023-04-24T17:17:15;99057.00;;;8.70
29423;BMP180;16399;51.686;8.684;2023-04-24T17:20:20;99051.00;;;8.70
29423;BMP180;16399;51.686;8.684;2023-04-24T17:23:22;99060.00;;;8.70
29423;BMP180;16399;51.686;8.684;2023-04-24T17:26:24;99054.00;;;8.70
29423;BMP180;16399;51.686;8.684;2023-04-24T17:29:27;99055.00;;;8.70
29423;BMP180;16399;51.686;8.684;2023-04-24T17:32:30;99060.00;;;8.70
29423;BMP180;16399;51.686;8.684;2023-04-24T17:35:32;99057.00;;;8.70
29423;BMP180;16399;51.686;8.684;2023-04-24T17:38:34;99075.00;;;8.60
29423;BMP180;16399;51.686;8.684;2023-04-24T17:41:36;99064.00;;;8.60
29423;BMP180;16399;51.686;8.684;2023-04-24T17:44:39;99075.00;;;8.50
29423;BMP180;16399;51.686;8.684;2023-04-24T17:47:41;99078.00;;;8.30
29423;BMP180;16399;51.686;8.684;2023-04-24T17:50:44;99076.00;;;8.30